sensor_id;sensor_type;location;lat;lon;timestamp;P1;durP1;ratioP1;P2;durP2;ratioP2
948;SDS011;461;51.436;7.312;2024-03-23T10:14:08;6.30;;;3.90;;
948;SDS011;461;51.436;7.312;2024-03-23T10:16:51;8.23;;;4.03;;
948;SDS011;461;51.436;7.312;2024-03-23T17:49:52;3.00;;;1.67;;
948;SDS011;461;51.436;7.312;2024-03-23T17:52:17;3.90;;;2.00;;
948;SDS011;461;51.436;7.312;2024-03-23T17:54:43;2.90;;;2.07;;
948;SDS011;461;51.436;7.312;2024-03-23T17:57:09;2.90;;;2.10;;
948;SDS011;461;51.436;7.312;2024-03-23T17:59:35;5.43;;;2.10;;
948;SDS011;461;51.436;7.312;2024-03-23T18:02:01;3.77;;;2.40;;
948;SDS011;461;51.436;7.312;2024-03-23T18:04:26;8.40;;;2.03;;
948;SDS011;461;51.436;7.312;2024-03-23T18:06:52;4.73;;;2.47;;
948;SDS011;461;51.436;7.312;2024-03-23T18:19:24;3.90;;;1.50;;
948;SDS011;461;51.436;7.312;2024-03-23T18:21:50;6.33;;;3.67;;
948;SDS011;461;51.436;7.312;2024-03-23T18:24:16;3.83;;;1.77;;
948;SDS011;461;51.436;7.312;2024-03-23T18:26:42;2.87;;;1.47;;
948;SDS011;461;51.436;7.312;2024-03-23T18:29:08;3.30;;;1.70;;
948;SDS011;461;51.436;7.312;2024-03-23T18:31:35;3.20;;;1.70;;
948;SDS011;461;51.436;7.312;2024-03-23T18:34:00;4.53;;;1.90;;
948;SDS011;461;51.436;7.312;2024-03-23T18:36:29;3.93;;;1.93;;
948;SDS011;461;51.436;7.312;2024-03-23T18:38:55;5.00;;;2.37;;
948;SDS011;461;51.436;7.312;2024-03-23T18:41:21;2.47;;;2.17;;
948;SDS011;461;51.436;7.312;2024-03-23T18:43:48;2.93;;;1.60;;
948;SDS011;461;51.436;7.312;2024-03-23T18:46:15;6.40;;;2.07;;
948;SDS011;461;51.436;7.312;2024-03-23T18:48:41;3.53;;;2.33;;
948;SDS011;461;51.436;7.312;2024-03-23T18:51:08;4.70;;;1.97;;
948;SDS011;461;51.436;7.312;2024-03-23T18:53:34;3.60;;;2.30;;
948;SDS011;461;51.436;7.312;2024-03-23T18:56:00;12.50;;;2.77;;
948;SDS011;461;51.436;7.312;2024-03-23T18:58:26;2.93;;;1.97;;
948;SDS011;461;51.436;7.312;2024-03-23T19:00:56;4.93;;;2.50;;
948;SDS011;461;51.436;7.312;2024-03-23T19:03:23;2.77;;;1.80;;
948;SDS011;461;51.436;7.312;2024-03-23T19:05:52;2.07;;;1.80;;
948;SDS011;461;51.436;7.312;2024-03-23T19:08:20;3.30;;;1.70;;
948;SDS011;461;51.436;7.312;2024-03-23T19:10:53;4.30;;;1.67;;
948;SDS011;461;51.436;7.312;2024-03-23T19:13:23;5.63;;;1.57;;
948;SDS011;461;51.436;7.312;2024-03-23T19:15:49;2.83;;;2.20;;
948;SDS011;461;51.436;7.312;2024-03-23T19:18:15;3.10;;;2.00;;
948;SDS011;461;51.436;7.312;2024-03-23T19:21:00;5.07;;;1.83;;
948;SDS011;461;51.436;7.312;2024-03-23T19:23:30;2.70;;;2.17;;
948;SDS011;461;51.436;7.312;2024-03-23T19:25:57;2.53;;;1.37;;
948;SDS011;461;51.436;7.312;2024-03-23T19:28:24;2.37;;;1.70;;
948;SDS011;461;51.436;7.312;2024-03-23T19:30:50;1.93;;;1.70;;
948;SDS011;461;51.436;7.312;2024-03-23T19:33:18;3.87;;;2.10;;
948;SDS011;461;51.436;7.312;2024-03-23T19:35:44;3.97;;;2.07;;
948;SDS011;461;51.436;7.312;2024-03-23T19:38:12;2.67;;;1.73;;
948;SDS011;461;51.436;7.312;2024-03-23T19:40:38;3.13;;;1.93;;
948;SDS011;461;51.436;7.312;2024-03-23T19:43:04;2.83;;;1.97;;
948;SDS011;461;51.436;7.312;2024-03-23T19:45:31;1.40;;;1.30;;
948;SDS011;461;51.436;7.312;2024-03-23T19:47:59;1.60;;;1.50;;
948;SDS011;461;51.436;7.312;2024-03-23T19:50:25;3.10;;;1.50;;
948;SDS011;461;51.436;7.312;2024-03-23T19:52:51;3.10;;;1.50;;
948;SDS011;461;51.436;7.312;2024-03-23T19:55:17;2.83;;;1.50;;
948;SDS011;461;51.436;7.312;2024-03-23T19:57:45;6.40;;;1.90;;
948;SDS011;461;51.436;7.312;2024-03-23T20:00:12;5.13;;;2.10;;
948;SDS011;461;51.436;7.312;2024-03-23T20:02:39;4.00;;;1.93;;
948;SDS011;461;51.436;7.312;2024-03-23T20:05:05;2.03;;;1.70;;
948;SDS011;461;51.436;7.312;2024-03-23T20:07:31;2.83;;;1.90;;
948;SDS011;461;51.436;7.312;2024-03-23T20:09:56;5.40;;;1.83;;
948;SDS011;461;51.436;7.312;2024-03-23T20:12:22;2.50;;;1.80;;
948;SDS011;461;51.436;7.312;2024-03-23T20:14:48;5.20;;;2.20;;
948;SDS011;461;51.436;7.312;2024-03-23T20:17:14;3.10;;;2.20;;
948;SDS011;461;51.436;7.312;2024-03-23T20:19:40;2.60;;;2.40;;
948;SDS011;461;51.436;7.312;2024-03-23T20:22:05;1.90;;;1.70;;
948;SDS011;461;51.436;7.312;2024-03-23T20:24:31;1.70;;;1.57;;
948;SDS011;461;51.436;7.312;2024-03-23T20:26:57;6.73;;;1.53;;
948;SDS011;461;51.436;7.312;2024-03-23T20:29:23;5.23;;;2.17;;
948;SDS011;461;51.436;7.312;2024-03-23T20:31:49;2.33;;;2.13;;
948;SDS011;461;51.436;7.312;2024-03-23T20:34:14;2.80;;;1.70;;
948;SDS011;461;51.436;7.312;2024-03-23T20:36:40;1.80;;;1.67;;
948;SDS011;461;51.436;7.312;2024-03-23T20:39:06;7.33;;;2.80;;
948;SDS011;461;51.436;7.312;2024-03-23T20:41:31;2.40;;;1.97;;
948;SDS011;461;51.436;7.312;2024-03-23T20:43:57;2.77;;;2.47;;
948;SDS011;461;51.436;7.312;2024-03-23T20:46:23;2.40;;;2.13;;
948;SDS011;461;51.436;7.312;2024-03-23T20:48:49;3.77;;;2.97;;
948;SDS011;461;51.436;7.312;2024-03-23T20:51:15;6.20;;;3.27;;
948;SDS011;461;51.436;7.312;2024-03-23T20:53:42;7.80;;;4.40;;
948;SDS011;461;51.436;7.312;2024-03-23T20:56:08;4.47;;;3.90;;
948;SDS011;461;51.436;7.312;2024-03-23T20:58:34;5.23;;;4.10;;
948;SDS011;461;51.436;7.312;2024-03-23T21:01:02;5.03;;;4.47;;
948;SDS011;461;51.436;7.312;2024-03-23T21:03:33;5.53;;;3.97;;
948;SDS011;461;51.436;7.312;2024-03-23T21:05:59;7.23;;;3.87;;
948;SDS011;461;51.436;7.312;2024-03-23T21:08:28;11.70;;;5.10;;
948;SDS011;461;51.436;7.312;2024-03-23T21:10:57;7.63;;;5.43;;
948;SDS011;461;51.436;7.312;2024-03-23T21:13:24;9.10;;;5.53;;
948;SDS011;461;51.436;7.312;2024-03-23T21:15:50;6.70;;;4.77;;
948;SDS011;461;51.436;7.312;2024-03-23T21:18:18;6.57;;;5.17;;
948;SDS011;461;51.436;7.312;2024-03-23T21:20:44;6.90;;;5.13;;
948;SDS011;461;51.436;7.312;2024-03-23T21:23:11;5.80;;;5.30;;
948;SDS011;461;51.436;7.312;2024-03-23T21:25:38;6.60;;;5.57;;
948;SDS011;461;51.436;7.312;2024-03-23T21:28:05;7.00;;;6.30;;
948;SDS011;461;51.436;7.312;2024-03-23T21:30:32;6.70;;;5.53;;
948;SDS011;461;51.436;7.312;2024-03-23T21:33:00;9.20;;;6.40;;
948;SDS011;461;51.436;7.312;2024-03-23T21:35:26;6.50;;;4.90;;
948;SDS011;461;51.436;7.312;2024-03-23T21:37:52;6.73;;;4.87;;
948;SDS011;461;51.436;7.312;2024-03-23T21:40:18;8.90;;;5.33;;
948;SDS011;461;51.436;7.312;2024-03-23T21:42:43;9.60;;;4.60;;
948;SDS011;461;51.436;7.312;2024-03-23T21:45:09;11.83;;;5.57;;
948;SDS011;461;51.436;7.312;2024-03-23T21:47:35;7.40;;;4.47;;
948;SDS011;461;51.436;7.312;2024-03-23T21:50:01;5.90;;;4.77;;
948;SDS011;461;51.436;7.312;2024-03-23T21:52:26;9.67;;;4.67;;
948;SDS011;461;51.436;7.312;2024-03-23T21:54:52;6.57;;;4.60;;
948;SDS011;461;51.436;7.312;2024-03-23T21:57:18;7.80;;;4.87;;
948;SDS011;461;51.436;7.312;2024-03-23T21:59:44;8.03;;;4.90;;
948;SDS011;461;51.436;7.312;2024-03-23T22:02:09;6.87;;;4.90;;
948;SDS011;461;51.436;7.312;2024-03-23T22:04:35;6.57;;;4.83;;
948;SDS011;461;51.436;7.312;2024-03-23T22:07:01;4.20;;;3.23;;
948;SDS011;461;51.436;7.312;2024-03-23T22:09:27;9.43;;;5.07;;
948;SDS011;461;51.436;7.312;2024-03-23T22:11:55;4.20;;;3.60;;
948;SDS011;461;51.436;7.312;2024-03-23T22:14:22;6.33;;;4.33;;
948;SDS011;461;51.436;7.312;2024-03-23T22:16:48;8.30;;;4.97;;
948;SDS011;461;51.436;7.312;2024-03-23T22:19:14;6.77;;;4.57;;
948;SDS011;461;51.436;7.312;2024-03-23T22:21:40;8.03;;;4.57;;
948;SDS011;461;51.436;7.312;2024-03-23T22:24:07;6.30;;;4.53;;
948;SDS011;461;51.436;7.312;2024-03-23T22:26:33;10.83;;;4.30;;
948;SDS011;461;51.436;7.312;2024-03-23T22:28:59;5.13;;;3.57;;
948;SDS011;461;51.436;7.312;2024-03-23T22:31:25;6.77;;;4.57;;
948;SDS011;461;51.436;7.312;2024-03-23T22:33:50;7.97;;;4.60;;
948;SDS011;461;51.436;7.312;2024-03-23T22:36:16;4.53;;;3.90;;
948;SDS011;461;51.436;7.312;2024-03-23T22:38:42;5.83;;;3.63;;
948;SDS011;461;51.436;7.312;2024-03-23T22:41:08;6.63;;;4.67;;
948;SDS011;461;51.436;7.312;2024-03-23T22:43:34;5.20;;;4.00;;
948;SDS011;461;51.436;7.312;2024-03-23T22:46:01;10.93;;;5.10;;
948;SDS011;461;51.436;7.312;2024-03-23T22:48:28;9.73;;;3.73;;
948;SDS011;461;51.436;7.312;2024-03-23T22:50:56;7.73;;;4.50;;
948;SDS011;461;51.436;7.312;2024-03-23T22:53:23;4.10;;;3.30;;
948;SDS011;461;51.436;7.312;2024-03-23T22:55:50;6.97;;;4.30;;
948;SDS011;461;51.436;7.312;2024-03-23T22:58:17;2.57;;;2.37;;
948;SDS011;461;51.436;7.312;2024-03-23T23:00:44;8.30;;;3.70;;
948;SDS011;461;51.436;7.312;2024-03-23T23:03:11;8.10;;;3.60;;
948;SDS011;461;51.436;7.312;2024-03-23T23:05:38;5.43;;;3.80;;
948;SDS011;461;51.436;7.312;2024-03-23T23:08:07;5.50;;;2.90;;
948;SDS011;461;51.436;7.312;2024-03-23T23:10:34;4.70;;;3.80;;
948;SDS011;461;51.436;7.312;2024-03-23T23:13:01;6.10;;;3.70;;
948;SDS011;461;51.436;7.312;2024-03-23T23:15:27;4.27;;;3.50;;
948;SDS011;461;51.436;7.312;2024-03-23T23:17:53;6.10;;;3.53;;
948;SDS011;461;51.436;7.312;2024-03-23T23:20:19;4.40;;;3.73;;
948;SDS011;461;51.436;7.312;2024-03-23T23:22:45;5.40;;;4.30;;
948;SDS011;461;51.436;7.312;2024-03-23T23:25:11;7.47;;;5.40;;
948;SDS011;461;51.436;7.312;2024-03-23T23:27:38;6.67;;;3.70;;
948;SDS011;461;51.436;7.312;2024-03-23T23:30:04;7.57;;;4.07;;
948;SDS011;461;51.436;7.312;2024-03-23T23:32:30;4.00;;;3.57;;
948;SDS011;461;51.436;7.312;2024-03-23T23:35:00;4.03;;;3.67;;
948;SDS011;461;51.436;7.312;2024-03-23T23:37:27;4.50;;;2.93;;
948;SDS011;461;51.436;7.312;2024-03-23T23:39:53;4.63;;;3.40;;
948;SDS011;461;51.436;7.312;2024-03-23T23:42:23;6.00;;;2.83;;
948;SDS011;461;51.436;7.312;2024-03-23T23:44:50;10.10;;;3.50;;
948;SDS011;461;51.436;7.312;2024-03-23T23:47:16;6.10;;;3.60;;
